BAW8648 LGAV-HEAX
Flight info
| Callsign | BAW8648 |
|---|---|
| Flight time | 1h 22m |
| Altitude | 37000 |
| Route | KEA1N KEA UL607 PAXIS L607 NABSI DCT |
| Aircraft | A320/M-SDE3FGIJ1KRWXY/SB1 |
Departure
| Time | 2026-05-06 13:43 |
|---|---|
| Airport | Athens Eleftherios Venizelos International Airport (LGAV) |
Arrival
| Time | 2026-05-06 15:05 |
|---|---|
| Airport | Alexandria International Airport (HEAX) |
| Time | Latitude | Longitude | Altitude | Speed | Heading |
|---|---|---|---|---|---|
| 2026-05-06 13:12 | 37.93468 | 23.94690 | 301 ft | 0 kts | 307° |
| 2026-05-06 13:32 | 37.93467 | 23.94690 | 302 ft | 1 kts | 307° |
| 2026-05-06 13:32 | 37.93454 | 23.94713 | 303 ft | 4 kts | 306° |
| 2026-05-06 13:33 | 37.93440 | 23.94736 | 302 ft | 2 kts | 306° |
| 2026-05-06 13:33 | 37.93424 | 23.94760 | 303 ft | 4 kts | 325° |
| 2026-05-06 13:33 | 37.93403 | 23.94770 | 301 ft | 4 kts | 25° |
| 2026-05-06 13:33 | 37.93397 | 23.94766 | 301 ft | 0 kts | 37° |
| 2026-05-06 13:36 | 37.93402 | 23.94770 | 301 ft | 2 kts | 37° |
| 2026-05-06 13:37 | 37.93423 | 23.94791 | 301 ft | 6 kts | 37° |
| 2026-05-06 13:37 | 37.93452 | 23.94839 | 301 ft | 8 kts | 76° |
| 2026-05-06 13:37 | 37.93424 | 23.94905 | 302 ft | 10 kts | 123° |
| 2026-05-06 13:37 | 37.93386 | 23.94983 | 302 ft | 10 kts | 115° |
| 2026-05-06 13:38 | 37.93421 | 23.95064 | 303 ft | 12 kts | 36° |
| 2026-05-06 13:38 | 37.93497 | 23.95137 | 299 ft | 16 kts | 37° |
| 2026-05-06 13:38 | 37.93602 | 23.95236 | 297 ft | 22 kts | 37° |
| 2026-05-06 13:38 | 37.93737 | 23.95364 | 297 ft | 26 kts | 36° |
| 2026-05-06 13:39 | 37.93885 | 23.95505 | 296 ft | 28 kts | 37° |
| 2026-05-06 13:39 | 37.94023 | 23.95635 | 296 ft | 24 kts | 37° |
| 2026-05-06 13:39 | 37.94159 | 23.95765 | 297 ft | 25 kts | 37° |
| 2026-05-06 13:39 | 37.94305 | 23.95903 | 300 ft | 27 kts | 37° |
| 2026-05-06 13:40 | 37.94456 | 23.96046 | 299 ft | 26 kts | 37° |
| 2026-05-06 13:40 | 37.94579 | 23.96163 | 300 ft | 22 kts | 37° |
| 2026-05-06 13:40 | 37.94706 | 23.96284 | 300 ft | 24 kts | 36° |
| 2026-05-06 13:40 | 37.94842 | 23.96412 | 302 ft | 25 kts | 37° |
| 2026-05-06 13:41 | 37.94985 | 23.96547 | 303 ft | 26 kts | 37° |
| 2026-05-06 13:41 | 37.95134 | 23.96689 | 303 ft | 28 kts | 37° |
| 2026-05-06 13:41 | 37.95268 | 23.96817 | 305 ft | 17 kts | 37° |
| 2026-05-06 13:41 | 37.95289 | 23.96911 | 304 ft | 12 kts | 125° |
| 2026-05-06 13:42 | 37.95244 | 23.96988 | 308 ft | 10 kts | 127° |
| 2026-05-06 13:42 | 37.95194 | 23.97021 | 311 ft | 9 kts | 195° |
| 2026-05-06 13:42 | 37.95128 | 23.96963 | 309 ft | 20 kts | 217° |
| 2026-05-06 13:42 | 37.94826 | 23.96675 | 304 ft | 88 kts | 217° |
| 2026-05-06 13:43 | 37.94193 | 23.96074 | 287 ft | 140 kts | 217° |
| 2026-05-06 13:43 | 37.93305 | 23.95237 | 393 ft | 170 kts | 216° |
| 2026-05-06 13:43 | 37.92334 | 23.94458 | 1111 ft | 164 kts | 209° |
| 2026-05-06 13:43 | 37.91326 | 23.93786 | 1779 ft | 163 kts | 207° |
| 2026-05-06 13:44 | 37.90298 | 23.93118 | 2338 ft | 164 kts | 207° |
| 2026-05-06 13:44 | 37.89293 | 23.92462 | 2893 ft | 166 kts | 207° |
| 2026-05-06 13:44 | 37.88272 | 23.91787 | 3450 ft | 167 kts | 208° |
| 2026-05-06 13:44 | 37.87206 | 23.91066 | 3788 ft | 183 kts | 209° |
| 2026-05-06 13:45 | 37.86040 | 23.90269 | 4148 ft | 197 kts | 208° |
| 2026-05-06 13:45 | 37.83426 | 23.88486 | 5002 ft | 229 kts | 208° |
| 2026-05-06 13:45 | 37.81984 | 23.87495 | 5535 ft | 243 kts | 209° |
| 2026-05-06 13:46 | 37.80460 | 23.86441 | 6144 ft | 256 kts | 209° |
| 2026-05-06 13:46 | 37.78874 | 23.85353 | 6890 ft | 262 kts | 208° |
| 2026-05-06 13:46 | 37.77128 | 23.84649 | 7663 ft | 269 kts | 183° |
| 2026-05-06 13:46 | 37.75288 | 23.85064 | 8414 ft | 275 kts | 155° |
| 2026-05-06 13:47 | 37.73777 | 23.86609 | 8898 ft | 289 kts | 123° |
| 2026-05-06 13:47 | 37.72796 | 23.88854 | 9594 ft | 294 kts | 116° |
| 2026-05-06 13:47 | 37.71848 | 23.91168 | 10283 ft | 302 kts | 116° |
| 2026-05-06 13:47 | 37.70846 | 23.93611 | 10511 ft | 325 kts | 116° |
| 2026-05-06 13:48 | 37.69770 | 23.96231 | 10750 ft | 345 kts | 116° |
| 2026-05-06 13:48 | 37.68646 | 23.98952 | 11311 ft | 353 kts | 117° |
| 2026-05-06 13:48 | 37.67500 | 24.01707 | 11962 ft | 357 kts | 117° |
| 2026-05-06 13:48 | 37.66341 | 24.04489 | 12627 ft | 360 kts | 117° |
| 2026-05-06 13:49 | 37.65167 | 24.07306 | 13256 ft | 364 kts | 117° |
| 2026-05-06 13:49 | 37.63981 | 24.10149 | 13859 ft | 368 kts | 117° |
| 2026-05-06 13:49 | 37.62783 | 24.13020 | 14457 ft | 372 kts | 117° |
| 2026-05-06 13:49 | 37.61570 | 24.15919 | 15031 ft | 375 kts | 117° |
| 2026-05-06 13:50 | 37.60345 | 24.18842 | 15605 ft | 378 kts | 117° |
| 2026-05-06 13:50 | 37.59108 | 24.21786 | 16145 ft | 382 kts | 117° |
| 2026-05-06 13:50 | 37.57859 | 24.24760 | 16677 ft | 386 kts | 117° |
| 2026-05-06 13:50 | 37.56467 | 24.27673 | 17189 ft | 390 kts | 126° |
| 2026-05-06 13:51 | 37.54671 | 24.30253 | 17714 ft | 394 kts | 136° |
| 2026-05-06 13:51 | 37.52515 | 24.32397 | 18228 ft | 397 kts | 147° |
| 2026-05-06 13:51 | 37.50157 | 24.34246 | 18738 ft | 401 kts | 148° |
| 2026-05-06 13:51 | 37.47780 | 24.36106 | 19257 ft | 404 kts | 148° |
| 2026-05-06 13:52 | 37.45383 | 24.37987 | 19752 ft | 408 kts | 148° |
| 2026-05-06 13:52 | 37.42970 | 24.39887 | 20258 ft | 411 kts | 148° |
| 2026-05-06 13:52 | 37.40535 | 24.41800 | 20736 ft | 414 kts | 148° |
| 2026-05-06 13:52 | 37.38111 | 24.43704 | 21200 ft | 418 kts | 148° |
| 2026-05-06 13:53 | 37.35641 | 24.45641 | 21651 ft | 421 kts | 148° |
| 2026-05-06 13:53 | 37.33142 | 24.47600 | 22079 ft | 424 kts | 148° |
| 2026-05-06 13:53 | 37.30630 | 24.49566 | 22506 ft | 427 kts | 148° |
| 2026-05-06 13:53 | 37.28101 | 24.51542 | 22921 ft | 430 kts | 148° |
| 2026-05-06 13:54 | 37.25552 | 24.53532 | 23335 ft | 432 kts | 148° |
| 2026-05-06 13:54 | 37.22992 | 24.55530 | 23731 ft | 435 kts | 148° |
| 2026-05-06 13:54 | 37.20409 | 24.57548 | 24118 ft | 438 kts | 148° |
| 2026-05-06 13:54 | 37.17811 | 24.59571 | 24508 ft | 441 kts | 148° |
| 2026-05-06 13:55 | 37.15197 | 24.61601 | 24885 ft | 443 kts | 148° |
| 2026-05-06 13:55 | 37.12569 | 24.63641 | 25251 ft | 446 kts | 148° |
| 2026-05-06 13:55 | 37.09924 | 24.65696 | 25614 ft | 448 kts | 148° |
| 2026-05-06 13:55 | 37.07268 | 24.67759 | 25974 ft | 451 kts | 148° |
| 2026-05-06 13:56 | 37.04595 | 24.69832 | 26316 ft | 453 kts | 148° |
| 2026-05-06 13:56 | 37.01907 | 24.71911 | 26664 ft | 455 kts | 149° |
| 2026-05-06 13:56 | 36.99207 | 24.73997 | 27022 ft | 458 kts | 149° |
| 2026-05-06 13:56 | 36.96493 | 24.76094 | 27361 ft | 460 kts | 149° |
| 2026-05-06 13:57 | 36.93764 | 24.78203 | 27708 ft | 462 kts | 149° |
| 2026-05-06 13:57 | 36.91025 | 24.80320 | 28030 ft | 464 kts | 149° |
| 2026-05-06 13:57 | 36.88274 | 24.82451 | 28362 ft | 466 kts | 148° |
| 2026-05-06 13:57 | 36.85512 | 24.84591 | 28687 ft | 468 kts | 149° |
| 2026-05-06 13:58 | 36.82737 | 24.86740 | 28999 ft | 470 kts | 149° |
| 2026-05-06 13:58 | 36.79950 | 24.88896 | 29299 ft | 473 kts | 149° |
| 2026-05-06 13:58 | 36.77157 | 24.91053 | 29708 ft | 472 kts | 149° |
| 2026-05-06 13:58 | 36.74368 | 24.93205 | 30140 ft | 471 kts | 149° |
| 2026-05-06 13:59 | 36.71587 | 24.95349 | 30560 ft | 470 kts | 149° |
| 2026-05-06 13:59 | 36.68814 | 24.97486 | 30975 ft | 469 kts | 149° |
| 2026-05-06 13:59 | 36.66037 | 24.99619 | 31387 ft | 468 kts | 149° |
| 2026-05-06 13:59 | 36.63269 | 25.01743 | 31794 ft | 467 kts | 149° |
| 2026-05-06 14:00 | 36.60505 | 25.03860 | 32192 ft | 466 kts | 149° |
| 2026-05-06 14:00 | 36.57748 | 25.05970 | 32596 ft | 465 kts | 149° |
| 2026-05-06 14:00 | 36.54992 | 25.08078 | 32981 ft | 464 kts | 149° |
| 2026-05-06 14:00 | 36.52245 | 25.10179 | 33378 ft | 463 kts | 149° |
| 2026-05-06 14:01 | 36.49504 | 25.12275 | 33747 ft | 463 kts | 149° |
| 2026-05-06 14:01 | 36.46798 | 25.14340 | 34131 ft | 462 kts | 149° |
| 2026-05-06 14:01 | 36.44062 | 25.16424 | 34504 ft | 461 kts | 149° |
| 2026-05-06 14:01 | 36.41331 | 25.18503 | 34850 ft | 460 kts | 149° |
| 2026-05-06 14:02 | 36.38603 | 25.20580 | 35169 ft | 460 kts | 149° |
| 2026-05-06 14:02 | 36.35880 | 25.22654 | 35473 ft | 460 kts | 149° |
| 2026-05-06 14:02 | 36.33154 | 25.24725 | 35760 ft | 459 kts | 149° |
| 2026-05-06 14:02 | 36.30429 | 25.26793 | 36058 ft | 459 kts | 150° |
| 2026-05-06 14:03 | 36.27710 | 25.28857 | 36330 ft | 459 kts | 150° |
| 2026-05-06 14:03 | 36.24986 | 25.30922 | 36583 ft | 459 kts | 150° |
| 2026-05-06 14:03 | 36.22259 | 25.32981 | 36850 ft | 458 kts | 150° |
| 2026-05-06 14:03 | 36.19543 | 25.35028 | 37068 ft | 456 kts | 150° |
| 2026-05-06 14:04 | 36.14103 | 25.39131 | 37115 ft | 460 kts | 150° |
| 2026-05-06 14:04 | 36.08638 | 25.43268 | 37108 ft | 461 kts | 150° |
| 2026-05-06 14:05 | 36.03164 | 25.47395 | 37108 ft | 461 kts | 150° |
| 2026-05-06 14:05 | 35.97684 | 25.51510 | 37110 ft | 461 kts | 150° |
| 2026-05-06 14:06 | 35.92200 | 25.55627 | 37111 ft | 461 kts | 150° |
| 2026-05-06 14:06 | 35.86717 | 25.59737 | 37112 ft | 461 kts | 150° |
| 2026-05-06 14:07 | 35.81237 | 25.63846 | 37113 ft | 461 kts | 150° |
| 2026-05-06 14:07 | 35.75753 | 25.67951 | 37119 ft | 461 kts | 150° |
| 2026-05-06 14:08 | 35.70272 | 25.72048 | 37115 ft | 461 kts | 150° |
| 2026-05-06 14:08 | 35.64790 | 25.76131 | 37112 ft | 460 kts | 150° |
| 2026-05-06 14:09 | 35.59306 | 25.80208 | 37114 ft | 461 kts | 150° |
| 2026-05-06 14:09 | 35.53816 | 25.84283 | 37115 ft | 461 kts | 150° |
| 2026-05-06 14:10 | 35.48357 | 25.88331 | 37122 ft | 461 kts | 150° |
| 2026-05-06 14:10 | 35.42860 | 25.92396 | 37122 ft | 461 kts | 150° |
| 2026-05-06 14:11 | 35.37371 | 25.96458 | 37123 ft | 461 kts | 150° |
| 2026-05-06 14:11 | 35.31881 | 26.00512 | 37124 ft | 461 kts | 150° |
| 2026-05-06 14:12 | 35.26387 | 26.04561 | 37120 ft | 461 kts | 150° |
| 2026-05-06 14:12 | 35.20887 | 26.08601 | 37118 ft | 461 kts | 150° |
| 2026-05-06 14:13 | 35.15382 | 26.12640 | 37114 ft | 462 kts | 150° |
| 2026-05-06 14:13 | 35.09877 | 26.16679 | 37114 ft | 461 kts | 150° |
| 2026-05-06 14:14 | 35.04642 | 26.21195 | 37116 ft | 462 kts | 140° |
| 2026-05-06 14:14 | 34.99758 | 26.26295 | 37110 ft | 462 kts | 140° |
| 2026-05-06 14:15 | 34.94865 | 26.31370 | 37112 ft | 462 kts | 141° |
| 2026-05-06 14:15 | 34.89970 | 26.36445 | 37113 ft | 462 kts | 141° |
| 2026-05-06 14:16 | 34.85113 | 26.41491 | 37112 ft | 462 kts | 141° |
| 2026-05-06 14:16 | 34.80183 | 26.46598 | 37111 ft | 462 kts | 141° |
| 2026-05-06 14:17 | 34.75320 | 26.51625 | 37108 ft | 462 kts | 141° |
| 2026-05-06 14:17 | 34.70423 | 26.56685 | 37112 ft | 462 kts | 141° |
| 2026-05-06 14:18 | 34.65529 | 26.61729 | 37105 ft | 461 kts | 141° |
| 2026-05-06 14:18 | 34.60627 | 26.66764 | 37104 ft | 461 kts | 141° |
| 2026-05-06 14:19 | 34.55731 | 26.71795 | 37104 ft | 461 kts | 141° |
| 2026-05-06 14:19 | 34.50832 | 26.76820 | 37098 ft | 461 kts | 141° |
| 2026-05-06 14:20 | 34.45930 | 26.81834 | 37105 ft | 461 kts | 141° |
| 2026-05-06 14:20 | 34.41024 | 26.86843 | 37109 ft | 461 kts | 141° |
| 2026-05-06 14:21 | 34.36945 | 26.91006 | 37109 ft | 462 kts | 141° |
| 2026-05-06 14:21 | 34.32028 | 26.96016 | 37112 ft | 462 kts | 141° |
| 2026-05-06 14:22 | 34.27105 | 27.01023 | 37115 ft | 463 kts | 141° |
| 2026-05-06 14:22 | 34.22179 | 27.06030 | 37117 ft | 463 kts | 141° |
| 2026-05-06 14:23 | 34.17253 | 27.11031 | 37120 ft | 463 kts | 141° |
| 2026-05-06 14:23 | 34.12326 | 27.16027 | 37117 ft | 462 kts | 141° |
| 2026-05-06 14:24 | 34.07385 | 27.21014 | 37113 ft | 463 kts | 141° |
| 2026-05-06 14:24 | 34.02445 | 27.25999 | 37116 ft | 463 kts | 141° |
| 2026-05-06 14:25 | 33.97503 | 27.30980 | 37118 ft | 463 kts | 141° |
| 2026-05-06 14:25 | 33.92359 | 27.35606 | 37123 ft | 461 kts | 148° |
| 2026-05-06 14:26 | 33.87059 | 27.39872 | 37119 ft | 461 kts | 148° |
| 2026-05-06 14:26 | 33.81736 | 27.44152 | 37118 ft | 460 kts | 148° |
| 2026-05-06 14:27 | 33.76404 | 27.48431 | 37122 ft | 460 kts | 148° |
| 2026-05-06 14:27 | 33.71078 | 27.52710 | 37120 ft | 460 kts | 148° |
| 2026-05-06 14:28 | 33.65755 | 27.56981 | 37120 ft | 460 kts | 148° |
| 2026-05-06 14:28 | 33.60424 | 27.61248 | 37122 ft | 461 kts | 148° |
| 2026-05-06 14:29 | 33.55087 | 27.65502 | 37121 ft | 460 kts | 148° |
| 2026-05-06 14:29 | 33.49752 | 27.69761 | 37120 ft | 460 kts | 148° |
| 2026-05-06 14:30 | 33.44425 | 27.74017 | 37121 ft | 460 kts | 148° |
| 2026-05-06 14:30 | 33.39089 | 27.78260 | 37126 ft | 460 kts | 148° |
| 2026-05-06 14:31 | 33.33788 | 27.82472 | 37128 ft | 460 kts | 148° |
| 2026-05-06 14:31 | 33.28417 | 27.86724 | 37129 ft | 460 kts | 148° |
| 2026-05-06 14:32 | 33.23110 | 27.90916 | 37129 ft | 460 kts | 148° |
| 2026-05-06 14:32 | 33.17777 | 27.95136 | 37132 ft | 460 kts | 148° |
| 2026-05-06 14:33 | 33.12444 | 27.99342 | 37136 ft | 459 kts | 148° |
| 2026-05-06 14:33 | 33.07106 | 28.03543 | 37137 ft | 459 kts | 148° |
| 2026-05-06 14:34 | 33.01777 | 28.07747 | 37136 ft | 460 kts | 148° |
| 2026-05-06 14:34 | 32.96442 | 28.11943 | 37138 ft | 459 kts | 148° |
| 2026-05-06 14:35 | 32.91109 | 28.16130 | 37138 ft | 459 kts | 149° |
| 2026-05-06 14:35 | 32.85777 | 28.20299 | 37139 ft | 458 kts | 149° |
| 2026-05-06 14:36 | 32.80479 | 28.24436 | 37139 ft | 458 kts | 149° |
| 2026-05-06 14:36 | 32.75151 | 28.28605 | 37141 ft | 458 kts | 148° |
| 2026-05-06 14:37 | 32.69820 | 28.32784 | 37141 ft | 459 kts | 149° |
| 2026-05-06 14:37 | 32.64491 | 28.36942 | 37146 ft | 458 kts | 149° |
| 2026-05-06 14:38 | 32.59156 | 28.41078 | 37145 ft | 458 kts | 149° |
| 2026-05-06 14:38 | 32.53819 | 28.45209 | 37144 ft | 458 kts | 149° |
| 2026-05-06 14:39 | 32.48489 | 28.49358 | 37141 ft | 458 kts | 149° |
| 2026-05-06 14:39 | 32.43192 | 28.53466 | 37136 ft | 458 kts | 149° |
| 2026-05-06 14:40 | 32.37853 | 28.57590 | 37129 ft | 458 kts | 149° |
| 2026-05-06 14:40 | 32.32472 | 28.61736 | 37129 ft | 458 kts | 149° |
| 2026-05-06 14:41 | 32.27161 | 28.65830 | 37129 ft | 459 kts | 149° |
| 2026-05-06 14:41 | 32.21816 | 28.69949 | 37134 ft | 459 kts | 149° |
| 2026-05-06 14:42 | 32.16470 | 28.74066 | 36997 ft | 459 kts | 149° |
| 2026-05-06 14:42 | 32.13797 | 28.76118 | 36648 ft | 458 kts | 149° |
| 2026-05-06 14:42 | 32.11117 | 28.78170 | 35915 ft | 461 kts | 149° |
| 2026-05-06 14:43 | 32.08414 | 28.80243 | 35157 ft | 465 kts | 149° |
| 2026-05-06 14:43 | 32.05683 | 28.82340 | 34318 ft | 470 kts | 149° |
| 2026-05-06 14:43 | 32.02925 | 28.84454 | 33401 ft | 476 kts | 149° |
| 2026-05-06 14:43 | 32.00133 | 28.86591 | 32496 ft | 481 kts | 149° |
| 2026-05-06 14:44 | 31.97318 | 28.88745 | 31790 ft | 481 kts | 149° |
| 2026-05-06 14:44 | 31.94527 | 28.90881 | 31218 ft | 476 kts | 149° |
| 2026-05-06 14:44 | 31.91758 | 28.92997 | 30600 ft | 473 kts | 149° |
| 2026-05-06 14:45 | 31.86280 | 28.97181 | 29401 ft | 466 kts | 149° |
| 2026-05-06 14:45 | 31.83568 | 28.99246 | 28798 ft | 462 kts | 149° |
| 2026-05-06 14:45 | 31.80883 | 29.01288 | 28204 ft | 458 kts | 149° |
| 2026-05-06 14:45 | 31.78220 | 29.03312 | 27609 ft | 454 kts | 149° |
| 2026-05-06 14:46 | 31.75578 | 29.05323 | 27027 ft | 450 kts | 148° |
| 2026-05-06 14:46 | 31.73118 | 29.07585 | 26450 ft | 449 kts | 139° |
| 2026-05-06 14:46 | 31.71042 | 29.10235 | 25928 ft | 445 kts | 130° |
| 2026-05-06 14:46 | 31.69131 | 29.13076 | 25394 ft | 441 kts | 130° |
| 2026-05-06 14:47 | 31.67234 | 29.15886 | 24880 ft | 436 kts | 130° |
| 2026-05-06 14:47 | 31.65358 | 29.18655 | 24381 ft | 431 kts | 130° |
| 2026-05-06 14:47 | 31.63494 | 29.21396 | 23899 ft | 427 kts | 130° |
| 2026-05-06 14:47 | 31.61652 | 29.24104 | 23420 ft | 422 kts | 130° |
| 2026-05-06 14:48 | 31.59830 | 29.26780 | 22959 ft | 418 kts | 130° |
| 2026-05-06 14:48 | 31.58020 | 29.29435 | 22495 ft | 414 kts | 130° |
| 2026-05-06 14:48 | 31.56226 | 29.32062 | 22027 ft | 411 kts | 130° |
| 2026-05-06 14:48 | 31.54448 | 29.34672 | 21565 ft | 408 kts | 130° |
| 2026-05-06 14:49 | 31.52690 | 29.37259 | 21088 ft | 404 kts | 130° |
| 2026-05-06 14:49 | 31.50948 | 29.39820 | 20618 ft | 400 kts | 130° |
| 2026-05-06 14:49 | 31.49216 | 29.42360 | 20116 ft | 397 kts | 130° |
| 2026-05-06 14:49 | 31.47499 | 29.44876 | 19641 ft | 394 kts | 130° |
| 2026-05-06 14:50 | 31.45793 | 29.47370 | 19145 ft | 391 kts | 130° |
| 2026-05-06 14:50 | 31.44097 | 29.49851 | 18648 ft | 388 kts | 130° |
| 2026-05-06 14:50 | 31.42420 | 29.52302 | 18152 ft | 385 kts | 130° |
| 2026-05-06 14:50 | 31.40766 | 29.54713 | 17645 ft | 382 kts | 130° |
| 2026-05-06 14:51 | 31.39108 | 29.57130 | 17156 ft | 379 kts | 129° |
| 2026-05-06 14:51 | 31.37461 | 29.59534 | 16653 ft | 378 kts | 129° |
| 2026-05-06 14:51 | 31.35821 | 29.61928 | 16153 ft | 376 kts | 129° |
| 2026-05-06 14:51 | 31.34190 | 29.64308 | 15657 ft | 374 kts | 129° |
| 2026-05-06 14:52 | 31.32565 | 29.66673 | 15161 ft | 372 kts | 129° |
| 2026-05-06 14:52 | 31.30948 | 29.69021 | 14669 ft | 370 kts | 129° |
| 2026-05-06 14:52 | 31.29340 | 29.71356 | 14175 ft | 367 kts | 129° |
| 2026-05-06 14:52 | 31.27749 | 29.73667 | 13683 ft | 364 kts | 129° |
| 2026-05-06 14:53 | 31.26164 | 29.75969 | 13192 ft | 361 kts | 129° |
| 2026-05-06 14:53 | 31.24593 | 29.78250 | 12704 ft | 359 kts | 129° |
| 2026-05-06 14:53 | 31.23035 | 29.80512 | 12219 ft | 356 kts | 129° |
| 2026-05-06 14:53 | 31.21487 | 29.82761 | 11734 ft | 354 kts | 129° |
| 2026-05-06 14:54 | 31.19947 | 29.84996 | 11188 ft | 353 kts | 129° |
| 2026-05-06 14:54 | 31.18428 | 29.87195 | 10681 ft | 352 kts | 129° |
| 2026-05-06 14:54 | 31.16903 | 29.89402 | 10359 ft | 344 kts | 129° |
| 2026-05-06 14:54 | 31.15425 | 29.91532 | 10276 ft | 331 kts | 129° |
| 2026-05-06 14:55 | 31.14002 | 29.93581 | 10140 ft | 321 kts | 129° |
| 2026-05-06 14:55 | 31.12619 | 29.95577 | 9995 ft | 311 kts | 128° |
| 2026-05-06 14:55 | 31.11250 | 29.97500 | 9590 ft | 304 kts | 135° |
| 2026-05-06 14:55 | 31.09561 | 29.98893 | 9189 ft | 294 kts | 156° |
| 2026-05-06 14:56 | 31.07628 | 29.99464 | 8810 ft | 283 kts | 178° |
| 2026-05-06 14:56 | 31.05718 | 29.99221 | 8440 ft | 272 kts | 198° |
| 2026-05-06 14:56 | 31.03948 | 29.98524 | 8071 ft | 265 kts | 200° |
| 2026-05-06 14:56 | 31.02231 | 29.97844 | 7716 ft | 257 kts | 199° |
| 2026-05-06 14:57 | 31.00560 | 29.97189 | 7384 ft | 249 kts | 199° |
| 2026-05-06 14:57 | 30.98932 | 29.96553 | 7056 ft | 245 kts | 199° |
| 2026-05-06 14:57 | 30.97293 | 29.95912 | 6715 ft | 246 kts | 199° |
| 2026-05-06 14:57 | 30.95671 | 29.95280 | 6382 ft | 246 kts | 199° |
| 2026-05-06 14:58 | 30.94067 | 29.94651 | 6063 ft | 246 kts | 199° |
| 2026-05-06 14:58 | 30.92453 | 29.94021 | 5733 ft | 244 kts | 199° |
| 2026-05-06 14:58 | 30.90849 | 29.93393 | 5394 ft | 243 kts | 199° |
| 2026-05-06 14:58 | 30.89247 | 29.92762 | 5072 ft | 242 kts | 199° |
| 2026-05-06 14:59 | 30.87662 | 29.92140 | 4747 ft | 240 kts | 199° |
| 2026-05-06 14:59 | 30.86075 | 29.91516 | 4421 ft | 240 kts | 199° |
| 2026-05-06 14:59 | 30.84498 | 29.90903 | 4103 ft | 238 kts | 199° |
| 2026-05-06 14:59 | 30.82935 | 29.90294 | 3788 ft | 233 kts | 199° |
| 2026-05-06 15:00 | 30.81415 | 29.89700 | 3543 ft | 228 kts | 200° |
| 2026-05-06 15:00 | 30.80057 | 29.88829 | 3380 ft | 219 kts | 221° |
| 2026-05-06 15:00 | 30.79077 | 29.87538 | 3254 ft | 208 kts | 234° |
| 2026-05-06 15:00 | 30.78222 | 29.86204 | 3150 ft | 204 kts | 234° |
| 2026-05-06 15:01 | 30.77411 | 29.84870 | 3127 ft | 201 kts | 245° |
| 2026-05-06 15:01 | 30.77187 | 29.83314 | 3127 ft | 198 kts | 281° |
| 2026-05-06 15:01 | 30.77785 | 29.81911 | 3120 ft | 198 kts | 316° |
| 2026-05-06 15:01 | 30.78862 | 29.80914 | 2972 ft | 197 kts | 324° |
| 2026-05-06 15:02 | 30.79952 | 29.79979 | 2733 ft | 192 kts | 323° |
| 2026-05-06 15:02 | 30.81010 | 29.79057 | 2477 ft | 187 kts | 323° |
| 2026-05-06 15:02 | 30.82032 | 29.78163 | 2236 ft | 182 kts | 323° |
| 2026-05-06 15:02 | 30.83033 | 29.77289 | 1998 ft | 177 kts | 323° |
| 2026-05-06 15:03 | 30.84006 | 29.76435 | 1764 ft | 173 kts | 323° |
| 2026-05-06 15:03 | 30.84963 | 29.75597 | 1535 ft | 171 kts | 323° |
| 2026-05-06 15:03 | 30.85912 | 29.74766 | 1315 ft | 169 kts | 323° |
| 2026-05-06 15:03 | 30.86813 | 29.73976 | 1109 ft | 153 kts | 323° |
| 2026-05-06 15:04 | 30.87636 | 29.73253 | 900 ft | 144 kts | 323° |
| 2026-05-06 15:04 | 30.88423 | 29.72564 | 699 ft | 141 kts | 323° |
| 2026-05-06 15:04 | 30.89196 | 29.71880 | 558 ft | 139 kts | 322° |
| 2026-05-06 15:04 | 30.89960 | 29.71195 | 385 ft | 139 kts | 324° |
| 2026-05-06 15:05 | 30.90732 | 29.70523 | 210 ft | 138 kts | 322° |
| 2026-05-06 15:05 | 30.91444 | 29.69900 | 199 ft | 110 kts | 323° |
| 2026-05-06 15:05 | 30.91925 | 29.69480 | 196 ft | 61 kts | 322° |
| 2026-05-06 15:05 | 30.92152 | 29.69289 | 194 ft | 16 kts | 338° |
| 2026-05-06 15:06 | 30.92214 | 29.69330 | 189 ft | 12 kts | 51° |
| 2026-05-06 15:06 | 30.92267 | 29.69410 | 188 ft | 13 kts | 53° |
| 2026-05-06 15:06 | 30.92331 | 29.69506 | 192 ft | 17 kts | 52° |
| 2026-05-06 15:06 | 30.92408 | 29.69627 | 201 ft | 19 kts | 52° |
| 2026-05-06 15:07 | 30.92474 | 29.69731 | 198 ft | 10 kts | 55° |
| 2026-05-06 15:07 | 30.92532 | 29.69765 | 183 ft | 12 kts | 339° |
| 2026-05-06 15:07 | 30.92609 | 29.69700 | 182 ft | 16 kts | 323° |
| 2026-05-06 15:07 | 30.92704 | 29.69616 | 181 ft | 18 kts | 322° |
| 2026-05-06 15:08 | 30.92777 | 29.69550 | 175 ft | 9 kts | 322° |
| 2026-05-06 15:08 | 30.92836 | 29.69547 | 170 ft | 10 kts | 39° |
| 2026-05-06 15:08 | 30.92889 | 29.69618 | 167 ft | 10 kts | 39° |
| 2026-05-06 15:08 | 30.92934 | 29.69625 | 168 ft | 3 kts | 343° |
| 2026-05-06 15:09 | 30.92958 | 29.69608 | 170 ft | 6 kts | 326° |
| 2026-05-06 15:09 | 30.92982 | 29.69587 | 170 ft | 7 kts | 323° |
| 2026-05-06 15:09 | 30.93049 | 29.69528 | 170 ft | 11 kts | 322° |
| 2026-05-06 15:09 | 30.93107 | 29.69477 | 170 ft | 4 kts | 323° |
| 2026-05-06 15:10 | 30.93138 | 29.69457 | 170 ft | 5 kts | 354° |
| 2026-05-06 15:10 | 30.93166 | 29.69486 | 170 ft | 7 kts | 53° |
| 2026-05-06 15:10 | 30.93188 | 29.69522 | 170 ft | 3 kts | 54° |
| 2026-05-06 15:10 | 30.93196 | 29.69534 | 170 ft | 2 kts | 54° |
| 2026-05-06 15:11 | 30.93204 | 29.69547 | 170 ft | 2 kts | 53° |
| 2026-05-06 15:11 | 30.93204 | 29.69548 | 170 ft | 0 kts | 53° |